sensor_id;sensor_type;location;lat;lon;timestamp;P1;durP1;ratioP1;P2;durP2;ratioP2
7471;SDS011;3777;48.722;8.110;2024-03-23T00:54:04;3.47;;;2.83;;
7471;SDS011;3777;48.722;8.110;2024-03-23T00:56:31;4.07;;;3.00;;
7471;SDS011;3777;48.722;8.110;2024-03-23T00:58:57;5.87;;;2.90;;
7471;SDS011;3777;48.722;8.110;2024-03-23T01:01:24;3.37;;;2.80;;
7471;SDS011;3777;48.722;8.110;2024-03-23T01:03:50;3.40;;;3.10;;
7471;SDS011;3777;48.722;8.110;2024-03-23T01:06:17;4.40;;;3.07;;
7471;SDS011;3777;48.722;8.110;2024-03-23T01:08:45;4.10;;;3.70;;
7471;SDS011;3777;48.722;8.110;2024-03-23T01:11:12;3.97;;;3.30;;
7471;SDS011;3777;48.722;8.110;2024-03-23T01:13:38;3.40;;;3.10;;
7471;SDS011;3777;48.722;8.110;2024-03-23T01:16:05;4.73;;;3.47;;
7471;SDS011;3777;48.722;8.110;2024-03-23T01:18:31;5.77;;;3.30;;
7471;SDS011;3777;48.722;8.110;2024-03-23T01:20:59;3.80;;;3.40;;
7471;SDS011;3777;48.722;8.110;2024-03-23T01:23:25;3.67;;;3.23;;
7471;SDS011;3777;48.722;8.110;2024-03-23T01:25:53;4.63;;;3.47;;
7471;SDS011;3777;48.722;8.110;2024-03-23T01:28:19;6.57;;;3.50;;
7471;SDS011;3777;48.722;8.110;2024-03-23T01:30:50;3.90;;;3.50;;
7471;SDS011;3777;48.722;8.110;2024-03-23T01:33:16;4.77;;;3.60;;
7471;SDS011;3777;48.722;8.110;2024-03-23T01:35:43;5.97;;;3.80;;
7471;SDS011;3777;48.722;8.110;2024-03-23T01:38:09;5.13;;;3.80;;
7471;SDS011;3777;48.722;8.110;2024-03-23T01:40:36;4.97;;;3.77;;
7471;SDS011;3777;48.722;8.110;2024-03-23T01:43:04;4.20;;;3.50;;
7471;SDS011;3777;48.722;8.110;2024-03-23T01:45:34;3.70;;;3.37;;
7471;SDS011;3777;48.722;8.110;2024-03-23T01:48:00;4.30;;;3.63;;
7471;SDS011;3777;48.722;8.110;2024-03-23T01:50:27;4.47;;;3.80;;
7471;SDS011;3777;48.722;8.110;2024-03-23T01:52:55;5.33;;;3.40;;
7471;SDS011;3777;48.722;8.110;2024-03-23T01:55:24;4.30;;;3.50;;
7471;SDS011;3777;48.722;8.110;2024-03-23T01:57:50;4.33;;;3.50;;
7471;SDS011;3777;48.722;8.110;2024-03-23T02:00:19;4.83;;;3.77;;
7471;SDS011;3777;48.722;8.110;2024-03-23T02:02:45;4.77;;;3.90;;
7471;SDS011;3777;48.722;8.110;2024-03-23T02:05:12;4.67;;;3.30;;
7471;SDS011;3777;48.722;8.110;2024-03-23T02:07:38;4.10;;;3.70;;
7471;SDS011;3777;48.722;8.110;2024-03-23T02:10:06;4.37;;;3.47;;
7471;SDS011;3777;48.722;8.110;2024-03-23T02:12:32;6.50;;;3.60;;
7471;SDS011;3777;48.722;8.110;2024-03-23T02:15:02;4.20;;;3.63;;
7471;SDS011;3777;48.722;8.110;2024-03-23T02:17:30;4.17;;;3.37;;
7471;SDS011;3777;48.722;8.110;2024-03-23T02:20:00;4.40;;;3.77;;
7471;SDS011;3777;48.722;8.110;2024-03-23T02:22:33;4.37;;;3.63;;
7471;SDS011;3777;48.722;8.110;2024-03-23T02:25:03;5.17;;;3.63;;
7471;SDS011;3777;48.722;8.110;2024-03-23T02:27:29;5.10;;;3.87;;
7471;SDS011;3777;48.722;8.110;2024-03-23T02:29:56;4.37;;;3.63;;
7471;SDS011;3777;48.722;8.110;2024-03-23T02:32:22;7.00;;;4.37;;
7471;SDS011;3777;48.722;8.110;2024-03-23T02:34:49;3.90;;;3.50;;
7471;SDS011;3777;48.722;8.110;2024-03-23T02:37:15;4.77;;;3.77;;
7471;SDS011;3777;48.722;8.110;2024-03-23T02:39:42;7.47;;;3.90;;
7471;SDS011;3777;48.722;8.110;2024-03-23T02:42:09;6.13;;;3.70;;
7471;SDS011;3777;48.722;8.110;2024-03-23T02:44:36;6.37;;;4.37;;
7471;SDS011;3777;48.722;8.110;2024-03-23T02:47:02;6.73;;;4.10;;
7471;SDS011;3777;48.722;8.110;2024-03-23T02:49:29;4.30;;;3.90;;
7471;SDS011;3777;48.722;8.110;2024-03-23T02:51:55;5.43;;;3.60;;
7471;SDS011;3777;48.722;8.110;2024-03-23T02:54:22;5.17;;;3.70;;
7471;SDS011;3777;48.722;8.110;2024-03-23T02:56:48;4.30;;;3.80;;
7471;SDS011;3777;48.722;8.110;2024-03-23T02:59:17;5.03;;;3.73;;
7471;SDS011;3777;48.722;8.110;2024-03-23T03:01:42;6.27;;;3.50;;
7471;SDS011;3777;48.722;8.110;2024-03-23T03:04:09;4.17;;;3.77;;
7471;SDS011;3777;48.722;8.110;2024-03-23T03:06:35;5.13;;;4.00;;
7471;SDS011;3777;48.722;8.110;2024-03-23T03:09:02;7.30;;;4.30;;
7471;SDS011;3777;48.722;8.110;2024-03-23T03:11:28;5.20;;;3.90;;
7471;SDS011;3777;48.722;8.110;2024-03-23T03:13:55;4.93;;;3.83;;
7471;SDS011;3777;48.722;8.110;2024-03-23T03:16:22;6.07;;;4.00;;
7471;SDS011;3777;48.722;8.110;2024-03-23T03:18:49;4.40;;;3.90;;
7471;SDS011;3777;48.722;8.110;2024-03-23T03:21:15;4.67;;;4.00;;
7471;SDS011;3777;48.722;8.110;2024-03-23T03:23:44;7.77;;;3.90;;
7471;SDS011;3777;48.722;8.110;2024-03-23T03:26:10;5.13;;;3.87;;
7471;SDS011;3777;48.722;8.110;2024-03-23T03:28:37;5.27;;;4.30;;
7471;SDS011;3777;48.722;8.110;2024-03-23T03:31:03;6.93;;;5.07;;
7471;SDS011;3777;48.722;8.110;2024-03-23T03:33:31;6.23;;;5.30;;
7471;SDS011;3777;48.722;8.110;2024-03-23T03:35:57;6.70;;;5.10;;
7471;SDS011;3777;48.722;8.110;2024-03-23T03:38:24;9.13;;;6.67;;
7471;SDS011;3777;48.722;8.110;2024-03-23T03:40:50;10.07;;;7.43;;
7471;SDS011;3777;48.722;8.110;2024-03-23T03:43:17;9.83;;;8.23;;
7471;SDS011;3777;48.722;8.110;2024-03-23T03:45:50;10.93;;;8.60;;
7471;SDS011;3777;48.722;8.110;2024-03-23T03:48:18;11.67;;;9.13;;
7471;SDS011;3777;48.722;8.110;2024-03-23T03:50:45;14.60;;;11.00;;
7471;SDS011;3777;48.722;8.110;2024-03-23T03:53:12;12.70;;;10.93;;
7471;SDS011;3777;48.722;8.110;2024-03-23T03:55:38;15.63;;;11.90;;
7471;SDS011;3777;48.722;8.110;2024-03-23T03:58:05;17.13;;;13.47;;
7471;SDS011;3777;48.722;8.110;2024-03-23T04:00:31;18.30;;;14.17;;
7471;SDS011;3777;48.722;8.110;2024-03-23T04:02:58;19.67;;;14.27;;
7471;SDS011;3777;48.722;8.110;2024-03-23T04:05:24;18.60;;;14.23;;
7471;SDS011;3777;48.722;8.110;2024-03-23T04:07:52;18.10;;;14.73;;
7471;SDS011;3777;48.722;8.110;2024-03-23T04:10:19;21.97;;;15.10;;
7471;SDS011;3777;48.722;8.110;2024-03-23T04:12:46;17.43;;;13.23;;
7471;SDS011;3777;48.722;8.110;2024-03-23T04:15:13;16.63;;;12.93;;
7471;SDS011;3777;48.722;8.110;2024-03-23T04:17:40;18.23;;;13.93;;
7471;SDS011;3777;48.722;8.110;2024-03-23T04:20:08;16.70;;;13.07;;
7471;SDS011;3777;48.722;8.110;2024-03-23T04:22:36;16.13;;;12.63;;
7471;SDS011;3777;48.722;8.110;2024-03-23T04:25:04;17.43;;;13.03;;
7471;SDS011;3777;48.722;8.110;2024-03-23T04:27:32;16.23;;;12.77;;
7471;SDS011;3777;48.722;8.110;2024-03-23T04:29:58;15.80;;;13.00;;
7471;SDS011;3777;48.722;8.110;2024-03-23T04:32:26;17.07;;;13.27;;
7471;SDS011;3777;48.722;8.110;2024-03-23T04:34:52;14.57;;;12.80;;
7471;SDS011;3777;48.722;8.110;2024-03-23T04:37:19;13.73;;;11.70;;
7471;SDS011;3777;48.722;8.110;2024-03-23T04:39:46;14.50;;;12.20;;
7471;SDS011;3777;48.722;8.110;2024-03-23T04:42:15;14.67;;;12.03;;
7471;SDS011;3777;48.722;8.110;2024-03-23T04:44:42;14.33;;;11.03;;
7471;SDS011;3777;48.722;8.110;2024-03-23T04:47:10;14.60;;;11.73;;
7471;SDS011;3777;48.722;8.110;2024-03-23T04:49:36;14.97;;;12.03;;
7471;SDS011;3777;48.722;8.110;2024-03-23T04:52:03;13.57;;;10.20;;
7471;SDS011;3777;48.722;8.110;2024-03-23T04:54:31;10.93;;;9.10;;
7471;SDS011;3777;48.722;8.110;2024-03-23T04:56:58;9.97;;;7.60;;
7471;SDS011;3777;48.722;8.110;2024-03-23T04:59:27;9.07;;;7.63;;
7471;SDS011;3777;48.722;8.110;2024-03-23T05:01:53;8.67;;;6.40;;
7471;SDS011;3777;48.722;8.110;2024-03-23T05:04:20;8.03;;;6.07;;
7471;SDS011;3777;48.722;8.110;2024-03-23T05:06:46;6.33;;;5.07;;
7471;SDS011;3777;48.722;8.110;2024-03-23T05:09:12;5.57;;;4.47;;
7471;SDS011;3777;48.722;8.110;2024-03-23T05:11:38;5.10;;;4.30;;
7471;SDS011;3777;48.722;8.110;2024-03-23T05:14:06;4.53;;;4.07;;
7471;SDS011;3777;48.722;8.110;2024-03-23T05:16:34;3.13;;;2.83;;
7471;SDS011;3777;48.722;8.110;2024-03-23T05:19:01;3.13;;;2.30;;
7471;SDS011;3777;48.722;8.110;2024-03-23T05:21:27;2.90;;;2.27;;
7471;SDS011;3777;48.722;8.110;2024-03-23T05:23:54;2.90;;;2.60;;
7471;SDS011;3777;48.722;8.110;2024-03-23T05:26:21;3.27;;;1.60;;
7471;SDS011;3777;48.722;8.110;2024-03-23T05:28:49;2.33;;;1.40;;
7471;SDS011;3777;48.722;8.110;2024-03-23T05:31:22;1.30;;;1.20;;
7471;SDS011;3777;48.722;8.110;2024-03-23T05:33:51;1.50;;;1.40;;
7471;SDS011;3777;48.722;8.110;2024-03-23T05:36:17;1.20;;;1.10;;
7471;SDS011;3777;48.722;8.110;2024-03-23T05:38:44;1.07;;;1.03;;
7471;SDS011;3777;48.722;8.110;2024-03-23T05:41:10;1.37;;;1.27;;
7471;SDS011;3777;48.722;8.110;2024-03-23T05:43:37;1.50;;;1.20;;
7471;SDS011;3777;48.722;8.110;2024-03-23T05:46:03;1.30;;;1.20;;
7471;SDS011;3777;48.722;8.110;2024-03-23T05:48:30;1.50;;;1.40;;
7471;SDS011;3777;48.722;8.110;2024-03-23T05:50:58;1.33;;;1.17;;
7471;SDS011;3777;48.722;8.110;2024-03-23T05:53:25;1.33;;;1.10;;
7471;SDS011;3777;48.722;8.110;2024-03-23T05:55:51;1.20;;;1.10;;
7471;SDS011;3777;48.722;8.110;2024-03-23T05:58:28;1.30;;;1.20;;
7471;SDS011;3777;48.722;8.110;2024-03-23T06:00:59;1.20;;;1.10;;
7471;SDS011;3777;48.722;8.110;2024-03-23T06:03:26;1.53;;;1.30;;
7471;SDS011;3777;48.722;8.110;2024-03-23T06:05:53;1.30;;;1.20;;
7471;SDS011;3777;48.722;8.110;2024-03-23T06:08:21;1.40;;;1.30;;
7471;SDS011;3777;48.722;8.110;2024-03-23T06:10:49;1.47;;;1.27;;
7471;SDS011;3777;48.722;8.110;2024-03-23T06:13:15;1.30;;;1.20;;
7471;SDS011;3777;48.722;8.110;2024-03-23T06:15:43;1.50;;;1.40;;
7471;SDS011;3777;48.722;8.110;2024-03-23T06:18:09;2.80;;;1.30;;
7471;SDS011;3777;48.722;8.110;2024-03-23T06:20:37;1.43;;;1.33;;
7471;SDS011;3777;48.722;8.110;2024-03-23T06:23:03;1.60;;;1.40;;
7471;SDS011;3777;48.722;8.110;2024-03-23T06:25:31;1.57;;;1.47;;
7471;SDS011;3777;48.722;8.110;2024-03-23T06:27:57;1.33;;;1.23;;
7471;SDS011;3777;48.722;8.110;2024-03-23T06:30:26;1.40;;;1.20;;
7471;SDS011;3777;48.722;8.110;2024-03-23T06:32:54;1.30;;;1.20;;
7471;SDS011;3777;48.722;8.110;2024-03-23T06:35:21;1.30;;;1.20;;
7471;SDS011;3777;48.722;8.110;2024-03-23T06:37:47;1.30;;;1.20;;
7471;SDS011;3777;48.722;8.110;2024-03-23T06:40:14;1.30;;;1.20;;
7471;SDS011;3777;48.722;8.110;2024-03-23T06:42:42;1.10;;;1.10;;
7471;SDS011;3777;48.722;8.110;2024-03-23T06:45:09;1.20;;;1.10;;
7471;SDS011;3777;48.722;8.110;2024-03-23T06:47:35;1.40;;;1.30;;
7471;SDS011;3777;48.722;8.110;2024-03-23T06:50:02;1.23;;;1.20;;
7471;SDS011;3777;48.722;8.110;2024-03-23T06:52:29;1.30;;;1.20;;
7471;SDS011;3777;48.722;8.110;2024-03-23T06:54:56;1.53;;;1.30;;
7471;SDS011;3777;48.722;8.110;2024-03-23T06:57:22;1.27;;;1.17;;
7471;SDS011;3777;48.722;8.110;2024-03-23T06:59:51;1.43;;;1.30;;
7471;SDS011;3777;48.722;8.110;2024-03-23T07:02:17;1.50;;;1.40;;
7471;SDS011;3777;48.722;8.110;2024-03-23T07:04:44;1.40;;;1.30;;
7471;SDS011;3777;48.722;8.110;2024-03-23T07:07:10;1.50;;;1.40;;
7471;SDS011;3777;48.722;8.110;2024-03-23T07:09:37;1.93;;;1.50;;
7471;SDS011;3777;48.722;8.110;2024-03-23T07:12:04;1.50;;;1.40;;
7471;SDS011;3777;48.722;8.110;2024-03-23T07:14:32;1.60;;;1.50;;
7471;SDS011;3777;48.722;8.110;2024-03-23T07:16:59;1.93;;;1.73;;
7471;SDS011;3777;48.722;8.110;2024-03-23T07:19:26;3.17;;;1.90;;
7471;SDS011;3777;48.722;8.110;2024-03-23T07:21:53;3.57;;;2.13;;
7471;SDS011;3777;48.722;8.110;2024-03-23T07:24:20;2.13;;;1.87;;
7471;SDS011;3777;48.722;8.110;2024-03-23T07:26:46;2.20;;;2.00;;
7471;SDS011;3777;48.722;8.110;2024-03-23T07:29:13;2.70;;;1.97;;
7471;SDS011;3777;48.722;8.110;2024-03-23T07:31:40;2.53;;;2.00;;
7471;SDS011;3777;48.722;8.110;2024-03-23T07:34:08;2.50;;;2.30;;
7471;SDS011;3777;48.722;8.110;2024-03-23T07:36:34;2.87;;;2.30;;
7471;SDS011;3777;48.722;8.110;2024-03-23T07:39:01;3.87;;;2.63;;
7471;SDS011;3777;48.722;8.110;2024-03-23T07:41:28;3.93;;;2.60;;
7471;SDS011;3777;48.722;8.110;2024-03-23T07:43:55;5.97;;;3.33;;
7471;SDS011;3777;48.722;8.110;2024-03-23T07:46:21;6.23;;;3.67;;
7471;SDS011;3777;48.722;8.110;2024-03-23T07:48:50;8.37;;;3.90;;
7471;SDS011;3777;48.722;8.110;2024-03-23T07:51:18;6.07;;;3.80;;
7471;SDS011;3777;48.722;8.110;2024-03-23T07:53:47;7.13;;;3.70;;
7471;SDS011;3777;48.722;8.110;2024-03-23T07:56:15;4.53;;;3.20;;
7471;SDS011;3777;48.722;8.110;2024-03-23T07:58:41;7.03;;;3.50;;
7471;SDS011;3777;48.722;8.110;2024-03-23T08:01:09;6.60;;;3.77;;
7471;SDS011;3777;48.722;8.110;2024-03-23T08:03:38;5.30;;;3.23;;
7471;SDS011;3777;48.722;8.110;2024-03-23T08:06:08;8.67;;;4.07;;
7471;SDS011;3777;48.722;8.110;2024-03-23T08:08:36;5.90;;;3.40;;
7471;SDS011;3777;48.722;8.110;2024-03-23T08:11:04;5.53;;;3.90;;
7471;SDS011;3777;48.722;8.110;2024-03-23T08:13:30;8.40;;;4.03;;
7471;SDS011;3777;48.722;8.110;2024-03-23T08:15:58;7.37;;;3.97;;
7471;SDS011;3777;48.722;8.110;2024-03-23T08:18:24;8.33;;;4.03;;
7471;SDS011;3777;48.722;8.110;2024-03-23T08:20:57;5.83;;;3.63;;
7471;SDS011;3777;48.722;8.110;2024-03-23T08:23:23;9.17;;;4.13;;
7471;SDS011;3777;48.722;8.110;2024-03-23T08:25:52;4.57;;;3.60;;
7471;SDS011;3777;48.722;8.110;2024-03-23T08:28:22;7.80;;;4.20;;
7471;SDS011;3777;48.722;8.110;2024-03-23T08:30:49;9.73;;;3.90;;
7471;SDS011;3777;48.722;8.110;2024-03-23T08:33:16;6.27;;;4.00;;
7471;SDS011;3777;48.722;8.110;2024-03-23T08:35:48;5.40;;;3.60;;
7471;SDS011;3777;48.722;8.110;2024-03-23T08:38:19;8.30;;;4.47;;
7471;SDS011;3777;48.722;8.110;2024-03-23T08:40:45;7.53;;;4.90;;
7471;SDS011;3777;48.722;8.110;2024-03-23T08:43:13;11.70;;;4.50;;
7471;SDS011;3777;48.722;8.110;2024-03-23T08:45:39;6.43;;;4.00;;
7471;SDS011;3777;48.722;8.110;2024-03-23T08:48:07;6.07;;;4.10;;
7471;SDS011;3777;48.722;8.110;2024-03-23T08:50:34;8.47;;;4.40;;
7471;SDS011;3777;48.722;8.110;2024-03-23T08:53:01;6.53;;;4.60;;
7471;SDS011;3777;48.722;8.110;2024-03-23T08:55:28;8.00;;;4.50;;
7471;SDS011;3777;48.722;8.110;2024-03-23T08:57:55;8.30;;;4.17;;
7471;SDS011;3777;48.722;8.110;2024-03-23T09:00:23;7.80;;;4.00;;
7471;SDS011;3777;48.722;8.110;2024-03-23T09:02:50;6.60;;;4.17;;
7471;SDS011;3777;48.722;8.110;2024-03-23T09:05:16;6.73;;;4.13;;
7471;SDS011;3777;48.722;8.110;2024-03-23T09:07:43;9.60;;;5.00;;
7471;SDS011;3777;48.722;8.110;2024-03-23T09:10:09;7.30;;;4.50;;
7471;SDS011;3777;48.722;8.110;2024-03-23T09:12:36;7.63;;;5.13;;
7471;SDS011;3777;48.722;8.110;2024-03-23T09:15:03;9.10;;;4.63;;
7471;SDS011;3777;48.722;8.110;2024-03-23T09:17:32;6.80;;;4.17;;
7471;SDS011;3777;48.722;8.110;2024-03-23T09:19:58;7.13;;;4.60;;
7471;SDS011;3777;48.722;8.110;2024-03-23T09:22:25;7.93;;;4.13;;
7471;SDS011;3777;48.722;8.110;2024-03-23T09:24:51;8.00;;;4.87;;
7471;SDS011;3777;48.722;8.110;2024-03-23T09:27:18;7.33;;;4.27;;
7471;SDS011;3777;48.722;8.110;2024-03-23T09:29:44;8.77;;;4.90;;
7471;SDS011;3777;48.722;8.110;2024-03-23T09:32:12;8.43;;;4.53;;
7471;SDS011;3777;48.722;8.110;2024-03-23T09:34:40;8.10;;;4.20;;
7471;SDS011;3777;48.722;8.110;2024-03-23T09:37:07;8.53;;;4.10;;
7471;SDS011;3777;48.722;8.110;2024-03-23T09:39:33;9.00;;;4.57;;
7471;SDS011;3777;48.722;8.110;2024-03-23T09:42:00;7.93;;;2.70;;
7471;SDS011;3777;48.722;8.110;2024-03-23T09:44:26;4.40;;;2.77;;
7471;SDS011;3777;48.722;8.110;2024-03-23T09:46:54;3.30;;;2.40;;
7471;SDS011;3777;48.722;8.110;2024-03-23T09:49:20;5.80;;;2.40;;
7471;SDS011;3777;48.722;8.110;2024-03-23T09:51:49;3.83;;;2.10;;
7471;SDS011;3777;48.722;8.110;2024-03-23T09:54:16;3.83;;;2.30;;
7471;SDS011;3777;48.722;8.110;2024-03-23T09:56:43;4.23;;;2.40;;
7471;SDS011;3777;48.722;8.110;2024-03-23T09:59:09;5.37;;;2.73;;
7471;SDS011;3777;48.722;8.110;2024-03-23T10:01:36;5.63;;;2.70;;
7471;SDS011;3777;48.722;8.110;2024-03-23T10:04:02;7.03;;;2.87;;
7471;SDS011;3777;48.722;8.110;2024-03-23T10:06:30;3.63;;;2.60;;
7471;SDS011;3777;48.722;8.110;2024-03-23T10:08:57;5.83;;;3.47;;
7471;SDS011;3777;48.722;8.110;2024-03-23T10:11:24;5.90;;;3.47;;
7471;SDS011;3777;48.722;8.110;2024-03-23T10:13:52;5.50;;;2.97;;
7471;SDS011;3777;48.722;8.110;2024-03-23T10:16:22;4.83;;;2.80;;
7471;SDS011;3777;48.722;8.110;2024-03-23T10:18:48;6.17;;;3.03;;
7471;SDS011;3777;48.722;8.110;2024-03-23T10:21:16;4.53;;;2.70;;
7471;SDS011;3777;48.722;8.110;2024-03-23T10:23:43;6.17;;;2.93;;
7471;SDS011;3777;48.722;8.110;2024-03-23T10:26:15;6.53;;;3.00;;
7471;SDS011;3777;48.722;8.110;2024-03-23T10:28:50;7.77;;;3.00;;
7471;SDS011;3777;48.722;8.110;2024-03-23T10:31:23;5.77;;;3.23;;
7471;SDS011;3777;48.722;8.110;2024-03-23T10:33:49;5.77;;;3.13;;
7471;SDS011;3777;48.722;8.110;2024-03-23T10:36:19;4.67;;;3.13;;
7471;SDS011;3777;48.722;8.110;2024-03-23T10:38:45;7.80;;;3.47;;
7471;SDS011;3777;48.722;8.110;2024-03-23T10:41:15;7.17;;;3.07;;
7471;SDS011;3777;48.722;8.110;2024-03-23T10:43:41;5.73;;;2.70;;
7471;SDS011;3777;48.722;8.110;2024-03-23T10:46:11;9.97;;;3.03;;
7471;SDS011;3777;48.722;8.110;2024-03-23T10:48:37;5.07;;;3.20;;
7471;SDS011;3777;48.722;8.110;2024-03-23T10:51:04;6.60;;;2.70;;
7471;SDS011;3777;48.722;8.110;2024-03-23T10:53:32;7.57;;;2.80;;
7471;SDS011;3777;48.722;8.110;2024-03-23T10:56:02;6.60;;;3.17;;
7471;SDS011;3777;48.722;8.110;2024-03-23T10:58:33;8.97;;;3.70;;
7471;SDS011;3777;48.722;8.110;2024-03-23T11:01:03;7.07;;;3.20;;
7471;SDS011;3777;48.722;8.110;2024-03-23T11:03:31;6.70;;;3.13;;
7471;SDS011;3777;48.722;8.110;2024-03-23T11:05:58;7.17;;;3.10;;
7471;SDS011;3777;48.722;8.110;2024-03-23T11:08:32;5.80;;;3.40;;
7471;SDS011;3777;48.722;8.110;2024-03-23T11:11:12;8.30;;;3.33;;
7471;SDS011;3777;48.722;8.110;2024-03-23T11:13:50;7.17;;;3.50;;
7471;SDS011;3777;48.722;8.110;2024-03-23T11:16:21;8.03;;;3.37;;
7471;SDS011;3777;48.722;8.110;2024-03-23T11:18:49;9.23;;;3.40;;
7471;SDS011;3777;48.722;8.110;2024-03-23T11:24:20;8.53;;;3.80;;
7471;SDS011;3777;48.722;8.110;2024-03-23T11:26:47;9.83;;;3.90;;
7471;SDS011;3777;48.722;8.110;2024-03-23T11:29:16;8.63;;;3.77;;
7471;SDS011;3777;48.722;8.110;2024-03-23T11:31:46;6.27;;;3.60;;
7471;SDS011;3777;48.722;8.110;2024-03-23T11:34:14;11.30;;;4.57;;
7471;SDS011;3777;48.722;8.110;2024-03-23T11:36:41;13.20;;;4.80;;
7471;SDS011;3777;48.722;8.110;2024-03-23T11:39:14;8.07;;;4.27;;
7471;SDS011;3777;48.722;8.110;2024-03-23T11:41:45;10.40;;;4.00;;
7471;SDS011;3777;48.722;8.110;2024-03-23T11:44:18;8.87;;;4.00;;
7471;SDS011;3777;48.722;8.110;2024-03-23T11:46:46;12.10;;;3.90;;
7471;SDS011;3777;48.722;8.110;2024-03-23T11:49:22;7.23;;;3.63;;
7471;SDS011;3777;48.722;8.110;2024-03-23T11:51:49;9.47;;;3.60;;
7471;SDS011;3777;48.722;8.110;2024-03-23T11:54:15;6.80;;;3.23;;
7471;SDS011;3777;48.722;8.110;2024-03-23T11:56:53;8.00;;;3.07;;
7471;SDS011;3777;48.722;8.110;2024-03-23T11:59:32;5.47;;;2.70;;
7471;SDS011;3777;48.722;8.110;2024-03-23T12:02:00;6.87;;;2.83;;
7471;SDS011;3777;48.722;8.110;2024-03-23T12:04:31;5.23;;;2.60;;
7471;SDS011;3777;48.722;8.110;2024-03-23T12:07:11;6.03;;;3.23;;
7471;SDS011;3777;48.722;8.110;2024-03-23T12:09:38;6.23;;;3.03;;
7471;SDS011;3777;48.722;8.110;2024-03-23T12:12:08;3.33;;;2.60;;
7471;SDS011;3777;48.722;8.110;2024-03-23T12:14:39;5.17;;;2.40;;
7471;SDS011;3777;48.722;8.110;2024-03-23T12:17:12;5.03;;;2.43;;
7471;SDS011;3777;48.722;8.110;2024-03-23T12:19:41;6.40;;;2.30;;
7471;SDS011;3777;48.722;8.110;2024-03-23T12:22:07;4.53;;;2.27;;
7471;SDS011;3777;48.722;8.110;2024-03-23T12:24:35;5.03;;;2.70;;
7471;SDS011;3777;48.722;8.110;2024-03-23T12:27:01;7.67;;;2.90;;
7471;SDS011;3777;48.722;8.110;2024-03-23T12:29:29;6.23;;;2.60;;
7471;SDS011;3777;48.722;8.110;2024-03-23T12:31:58;5.93;;;2.80;;
7471;SDS011;3777;48.722;8.110;2024-03-23T12:34:25;4.73;;;2.50;;
7471;SDS011;3777;48.722;8.110;2024-03-23T12:36:52;3.93;;;2.70;;
7471;SDS011;3777;48.722;8.110;2024-03-23T12:39:19;4.17;;;2.37;;
7471;SDS011;3777;48.722;8.110;2024-03-23T12:41:46;4.90;;;2.57;;
7471;SDS011;3777;48.722;8.110;2024-03-23T12:44:12;5.50;;;2.60;;
7471;SDS011;3777;48.722;8.110;2024-03-23T12:46:40;9.00;;;3.10;;
7471;SDS011;3777;48.722;8.110;2024-03-23T12:49:07;7.00;;;3.47;;
7471;SDS011;3777;48.722;8.110;2024-03-23T12:51:34;5.93;;;2.80;;
7471;SDS011;3777;48.722;8.110;2024-03-23T12:54:00;6.57;;;3.03;;
7471;SDS011;3777;48.722;8.110;2024-03-23T12:56:27;4.83;;;3.00;;
7471;SDS011;3777;48.722;8.110;2024-03-23T12:58:53;6.27;;;3.30;;
7471;SDS011;3777;48.722;8.110;2024-03-23T13:01:22;6.93;;;3.47;;
7471;SDS011;3777;48.722;8.110;2024-03-23T13:03:48;4.87;;;2.90;;
7471;SDS011;3777;48.722;8.110;2024-03-23T13:06:16;8.27;;;2.70;;
7471;SDS011;3777;48.722;8.110;2024-03-23T13:08:44;5.73;;;2.50;;
7471;SDS011;3777;48.722;8.110;2024-03-23T13:11:12;8.20;;;2.00;;
7471;SDS011;3777;48.722;8.110;2024-03-23T13:13:39;8.07;;;2.90;;
7471;SDS011;3777;48.722;8.110;2024-03-23T13:16:07;5.93;;;2.30;;
7471;SDS011;3777;48.722;8.110;2024-03-23T13:18:33;6.90;;;2.27;;
7471;SDS011;3777;48.722;8.110;2024-03-23T13:21:00;2.10;;;1.70;;
7471;SDS011;3777;48.722;8.110;2024-03-23T13:23:28;2.27;;;1.73;;
7471;SDS011;3777;48.722;8.110;2024-03-23T13:25:56;2.77;;;1.40;;
7471;SDS011;3777;48.722;8.110;2024-03-23T13:28:22;4.40;;;2.20;;
7471;SDS011;3777;48.722;8.110;2024-03-23T13:30:50;2.77;;;1.60;;
7471;SDS011;3777;48.722;8.110;2024-03-23T13:33:17;2.67;;;1.70;;
7471;SDS011;3777;48.722;8.110;2024-03-23T13:35:50;1.90;;;1.50;;
7471;SDS011;3777;48.722;8.110;2024-03-23T13:38:16;3.70;;;1.57;;
7471;SDS011;3777;48.722;8.110;2024-03-23T13:40:51;2.33;;;1.50;;
7471;SDS011;3777;48.722;8.110;2024-03-23T13:43:18;2.27;;;1.40;;
7471;SDS011;3777;48.722;8.110;2024-03-23T13:45:45;3.53;;;1.50;;
7471;SDS011;3777;48.722;8.110;2024-03-23T13:48:12;4.80;;;1.73;;
7471;SDS011;3777;48.722;8.110;2024-03-23T13:50:40;3.93;;;1.60;;
7471;SDS011;3777;48.722;8.110;2024-03-23T13:53:09;3.90;;;1.80;;
7471;SDS011;3777;48.722;8.110;2024-03-23T13:55:36;3.20;;;1.40;;
7471;SDS011;3777;48.722;8.110;2024-03-23T13:58:04;3.27;;;1.93;;
7471;SDS011;3777;48.722;8.110;2024-03-23T14:00:31;3.83;;;2.20;;
7471;SDS011;3777;48.722;8.110;2024-03-23T14:02:57;2.93;;;2.00;;
7471;SDS011;3777;48.722;8.110;2024-03-23T14:05:24;4.37;;;1.80;;
7471;SDS011;3777;48.722;8.110;2024-03-23T14:07:50;4.47;;;2.00;;
7471;SDS011;3777;48.722;8.110;2024-03-23T14:10:17;5.03;;;2.10;;
7471;SDS011;3777;48.722;8.110;2024-03-23T14:12:43;2.43;;;1.60;;
7471;SDS011;3777;48.722;8.110;2024-03-23T14:15:12;4.67;;;2.20;;
7471;SDS011;3777;48.722;8.110;2024-03-23T14:17:38;2.83;;;1.90;;
7471;SDS011;3777;48.722;8.110;2024-03-23T14:20:05;4.17;;;1.70;;
7471;SDS011;3777;48.722;8.110;2024-03-23T14:22:36;5.17;;;1.90;;
7471;SDS011;3777;48.722;8.110;2024-03-23T14:25:03;3.30;;;1.90;;
7471;SDS011;3777;48.722;8.110;2024-03-23T14:27:30;3.37;;;1.93;;
7471;SDS011;3777;48.722;8.110;2024-03-23T14:29:57;4.13;;;1.93;;
7471;SDS011;3777;48.722;8.110;2024-03-23T14:32:24;4.07;;;1.63;;
7471;SDS011;3777;48.722;8.110;2024-03-23T14:34:51;2.77;;;1.43;;
7471;SDS011;3777;48.722;8.110;2024-03-23T14:37:19;2.20;;;1.50;;
7471;SDS011;3777;48.722;8.110;2024-03-23T14:39:46;2.93;;;1.60;;
7471;SDS011;3777;48.722;8.110;2024-03-23T14:42:12;2.13;;;1.53;;
7471;SDS011;3777;48.722;8.110;2024-03-23T14:44:39;2.10;;;1.50;;
7471;SDS011;3777;48.722;8.110;2024-03-23T14:47:05;4.57;;;1.90;;
7471;SDS011;3777;48.722;8.110;2024-03-23T14:49:33;2.40;;;1.43;;
7471;SDS011;3777;48.722;8.110;2024-03-23T14:51:59;4.07;;;1.60;;
7471;SDS011;3777;48.722;8.110;2024-03-23T14:54:28;4.43;;;1.80;;
7471;SDS011;3777;48.722;8.110;2024-03-23T14:56:54;3.30;;;1.60;;
7471;SDS011;3777;48.722;8.110;2024-03-23T14:59:21;3.17;;;1.77;;
7471;SDS011;3777;48.722;8.110;2024-03-23T15:01:47;2.43;;;1.70;;
7471;SDS011;3777;48.722;8.110;2024-03-23T15:04:14;2.37;;;1.60;;
7471;SDS011;3777;48.722;8.110;2024-03-23T15:06:41;3.63;;;1.50;;
7471;SDS011;3777;48.722;8.110;2024-03-23T15:09:11;2.90;;;1.50;;
7471;SDS011;3777;48.722;8.110;2024-03-23T15:11:37;2.13;;;1.33;;
7471;SDS011;3777;48.722;8.110;2024-03-23T15:14:04;1.47;;;1.20;;
7471;SDS011;3777;48.722;8.110;2024-03-23T15:16:32;2.60;;;1.53;;
7471;SDS011;3777;48.722;8.110;2024-03-23T15:18:59;3.83;;;1.40;;
7471;SDS011;3777;48.722;8.110;2024-03-23T15:21:25;2.00;;;1.33;;
7471;SDS011;3777;48.722;8.110;2024-03-23T15:23:53;3.10;;;1.30;;
7471;SDS011;3777;48.722;8.110;2024-03-23T15:26:19;1.80;;;1.30;;
7471;SDS011;3777;48.722;8.110;2024-03-23T15:28:47;2.27;;;1.33;;
7471;SDS011;3777;48.722;8.110;2024-03-23T15:31:34;2.80;;;1.40;;
7471;SDS011;3777;48.722;8.110;2024-03-23T15:34:02;2.90;;;1.53;;
7471;SDS011;3777;48.722;8.110;2024-03-23T15:36:29;2.23;;;1.30;;
7471;SDS011;3777;48.722;8.110;2024-03-23T15:38:57;2.73;;;1.43;;
7471;SDS011;3777;48.722;8.110;2024-03-23T15:41:24;3.77;;;1.67;;
7471;SDS011;3777;48.722;8.110;2024-03-23T15:43:51;3.93;;;1.47;;
7471;SDS011;3777;48.722;8.110;2024-03-23T15:46:17;3.03;;;1.90;;
7471;SDS011;3777;48.722;8.110;2024-03-23T15:48:44;5.93;;;3.50;;
7471;SDS011;3777;48.722;8.110;2024-03-23T15:51:12;4.47;;;1.80;;
7471;SDS011;3777;48.722;8.110;2024-03-23T15:53:39;5.43;;;3.07;;
7471;SDS011;3777;48.722;8.110;2024-03-23T15:56:07;2.30;;;1.40;;
7471;SDS011;3777;48.722;8.110;2024-03-23T15:58:34;3.87;;;1.60;;
7471;SDS011;3777;48.722;8.110;2024-03-23T16:01:00;3.17;;;1.77;;
7471;SDS011;3777;48.722;8.110;2024-03-23T16:03:28;3.20;;;2.13;;
7471;SDS011;3777;48.722;8.110;2024-03-23T16:05:55;9.77;;;6.30;;
7471;SDS011;3777;48.722;8.110;2024-03-23T16:08:23;9.47;;;5.13;;
7471;SDS011;3777;48.722;8.110;2024-03-23T16:10:49;7.77;;;4.50;;